Time;durP1;ratioP1;P1;durP2;ratioP2;P2;SDS_P1;SDS_P2;PMS_P1;PMS_P2;Temp;Humidity;BMP_temperature;BMP_pressure;BME280_temperature;BME280_humidity;BME280_pressure;Samples;Min_cycle;Max_cycle;Signal;HPM_P1;HPM_P2
2022/08/29 06:05:23;;;;;;;21.50;10.20;;;;;;;20.95;82.74;99943.91;1752208;81;21599;-41
2022/08/29 06:07:49;;;;;;;21.10;9.18;;;;;;;21.25;80.54;99948.20;1808142;78;21035;-47
2022/08/29 06:10:18;;;;;;;18.75;9.53;;;;;;;21.45;79.99;99946.36;1800939;79;21474;-41
2022/08/29 06:12:45;;;;;;;24.60;9.48;;;;;;;21.65;78.62;99949.36;1783700;78;21043;-47
2022/08/29 06:15:12;;;;;;;25.72;8.93;;;;;;;21.81;77.41;99950.78;1782028;79;21024;-42
2022/08/29 06:17:39;;;;;;;21.77;9.80;;;;;;;21.95;75.91;99954.42;1817828;77;21075;-41
2022/08/29 06:20:08;;;;;;;16.87;8.65;;;;;;;22.08;74.51;99957.77;1830470;77;21004;-47
2022/08/29 06:22:36;;;;;;;19.70;8.83;;;;;;;22.17;74.25;99951.53;1809914;78;21908;-47
2022/08/29 06:25:04;;;;;;;23.87;10.28;;;;;;;22.28;73.87;99950.97;1819090;77;20987;-42
2022/08/29 06:27:31;;;;;;;22.37;8.88;;;;;;;22.41;73.52;99945.35;1814871;78;21064;-47
2022/08/29 06:29:57;;;;;;;13.53;8.25;;;;;;;22.55;72.79;99947.25;1813911;78;21017;-47
2022/08/29 06:32:24;;;;;;;15.78;7.83;;;;;;;22.68;72.71;99946.98;1765203;80;21055;-41
2022/08/29 06:34:51;;;;;;;20.05;8.18;;;;;;;22.81;71.15;99949.83;1817786;78;20988;-42
2022/08/29 06:37:17;;;;;;;15.08;7.67;;;;;;;22.93;70.78;99950.50;1812631;78;21035;-41
2022/08/29 06:39:44;;;;;;;12.68;8.33;;;;;;;23.07;68.97;99948.37;1804988;77;21094;-46
2022/08/29 06:42:10;;;;;;;18.57;8.05;;;;;;;23.20;67.98;99948.55;1800442;77;21070;-46
2022/08/29 06:44:38;;;;;;;18.75;7.33;;;;;;;23.32;67.50;99948.70;1795077;78;21051;-41
2022/08/29 06:47:05;;;;;;;13.75;7.37;;;;;;;23.46;67.44;99943.88;1815015;78;21121;-47
2022/08/29 06:49:32;;;;;;;18.02;7.25;;;;;;;23.56;66.83;99943.73;1808049;78;21056;-47
2022/08/29 06:51:58;;;;;;;12.23;7.30;;;;;;;23.68;66.40;99943.98;1752005;78;21004;-41
2022/08/29 06:54:27;;;;;;;19.92;7.35;;;;;;;23.79;66.50;99945.54;1816065;76;21031;-46
2022/08/29 06:56:55;;;;;;;16.27;7.03;;;;;;;24.03;64.16;99948.05;1815178;77;21519;-43
2022/08/29 06:59:22;;;;;;;17.62;7.40;;;;;;;24.03;64.16;99948.05;1824294;77;21542;-40
2022/08/29 07:01:48;;;;;;;14.28;7.15;;;;;;;24.18;63.89;99952.06;1833891;77;21070;-40
2022/08/29 07:04:15;;;;;;;15.72;6.78;;;;;;;24.45;61.30;99957.55;1815501;77;21106;-40
2022/08/29 07:06:43;;;;;;;18.65;6.87;;;;;;;24.57;61.55;99955.44;1798486;77;21044;-40
2022/08/29 07:09:10;;;;;;;13.62;6.62;;;;;;;24.57;61.55;99955.44;1803107;77;21658;-47
2022/08/29 07:11:39;;;;;;;20.90;7.15;;;;;;;24.71;60.66;99958.11;1810452;77;21307;-46
2022/08/29 07:14:06;;;;;;;21.10;6.67;;;;;;;25.09;59.67;99956.98;1837475;77;21054;-41
2022/08/29 07:16:34;;;;;;;15.55;6.37;;;;;;;25.09;59.67;99956.98;1812138;77;21031;-40
2022/08/29 07:19:02;;;;;;;27.58;8.08;;;;;;;25.26;58.96;99959.90;1803403;78;21622;-47
2022/08/29 07:21:29;;;;;;;16.27;7.08;;;;;;;25.43;58.06;99961.45;1769384;79;20995;-40
2022/08/29 07:23:56;;;;;;;15.70;6.97;;;;;;;25.55;57.20;99964.64;1775070;80;21067;-40
2022/08/29 07:26:35;;;;;;;19.10;6.45;;;;;;;25.67;56.66;99975.88;1772210;80;20996;-47
2022/08/29 07:29:07;;;;;;;16.75;6.08;;;;;;;25.80;55.34;99979.09;1774932;79;21101;-40
2022/08/29 07:31:34;;;;;;;18.45;5.72;;;;;;;25.95;54.43;99980.25;1811202;78;20992;-47
2022/08/29 07:34:01;;;;;;;19.45;6.40;;;;;;;26.11;53.97;99985.41;1810674;78;20980;-47
2022/08/29 07:36:27;;;;;;;15.83;5.85;;;;;;;26.24;52.49;99978.71;1807736;78;20975;-40
2022/08/29 07:38:54;;;;;;;17.90;5.80;;;;;;;26.36;51.09;99983.20;1796250;78;20968;-40
2022/08/29 07:41:22;;;;;;;13.30;5.83;;;;;;;26.45;50.96;99990.66;1798946;77;21543;-47
2022/08/29 07:43:49;;;;;;;27.07;6.47;;;;;;;26.60;50.89;99986.49;1811482;77;21088;-47
2022/08/29 07:46:17;;;;;;;17.75;6.50;;;;;;;26.77;50.88;99977.61;1812912;78;20987;-47
2022/08/29 07:48:44;;;;;;;16.32;6.08;;;;;;;26.96;50.90;99977.61;1806364;78;21567;-47
2022/08/29 07:51:16;;;;;;;20.88;5.83;;;;;;;27.12;50.74;99974.69;1804671;78;20995;-47
2022/08/29 07:53:43;;;;;;;16.55;6.03;;;;;;;27.28;50.39;99976.63;1808664;77;21439;-48
2022/08/29 07:56:13;;;;;;;15.40;6.10;;;;;;;27.44;49.62;99975.86;1810682;78;23190;-40
2022/08/29 07:58:40;;;;;;;19.60;6.12;;;;;;;27.58;49.02;99973.45;1812871;78;21472;-41
2022/08/29 08:01:07;;;;;;;20.88;6.62;;;;;;;27.66;48.37;99971.52;1810833;77;20995;-47
2022/08/29 08:03:34;;;;;;;13.62;6.47;;;;;;;27.69;48.03;99973.99;1805742;78;21078;-47
2022/08/29 08:06:01;;;;;;;15.48;5.65;;;;;;;27.75;48.27;99978.93;1807153;78;21523;-41
2022/08/29 08:08:29;;;;;;;18.55;6.62;;;;;;;27.87;47.71;99977.98;1803939;78;21432;-47
2022/08/29 08:10:55;;;;;;;19.48;7.10;;;;;;;27.96;46.90;99975.95;1801983;78;20992;-42
2022/08/29 08:13:22;;;;;;;16.17;6.00;;;;;;;28.03;46.26;99976.32;1805646;77;21557;-40
2022/08/29 08:15:49;;;;;;;16.05;6.65;;;;;;;28.11;45.98;99979.26;1814504;77;20991;-41
2022/08/29 08:18:16;;;;;;;15.85;6.33;;;;;;;28.19;45.50;99978.69;1822024;77;21012;-41
2022/08/29 08:20:47;;;;;;;10.03;5.40;;;;;;;28.26;45.30;99979.41;1810368;77;21040;-47
2022/08/29 08:23:12;;;;;;;15.68;5.53;;;;;;;28.39;45.28;99975.30;1816872;77;21019;-40
2022/08/29 08:25:38;;;;;;;10.35;5.17;;;;;;;28.54;43.50;99978.62;1810406;77;20968;-47
2022/08/29 08:28:05;;;;;;;17.40;5.92;;;;;;;28.66;43.50;99972.74;1807985;77;21547;-39
2022/08/29 08:30:33;;;;;;;16.52;5.35;;;;;;;28.80;43.57;99973.81;1814726;77;21006;-46
2022/08/29 08:33:00;;;;;;;15.35;5.55;;;;;;;28.94;42.11;99970.91;1813233;77;21884;-40
2022/08/29 08:35:26;;;;;;;9.33;5.00;;;;;;;29.07;42.66;99971.61;1822415;77;21044;-39
2022/08/29 08:37:53;;;;;;;17.48;5.53;;;;;;;29.21;41.57;99969.61;1804221;78;21020;-40
2022/08/29 08:40:29;;;;;;;15.25;5.33;;;;;;;29.32;39.97;99970.42;1807047;77;21745;-46
2022/08/29 08:43:00;;;;;;;11.45;4.90;;;;;;;29.38;39.98;99960.98;1804361;78;21358;-46
2022/08/29 08:45:38;;;;;;;11.65;5.25;;;;;;;29.47;39.30;99964.76;1811422;77;21008;-46
2022/08/29 08:48:27;;;;;;;18.70;5.78;;;;;;;29.51;39.07;99956.76;1809084;78;21559;-46
2022/08/29 08:51:08;;;;;;;14.58;5.20;;;;;;;29.57;38.89;99965.70;1811750;77;20991;-40
2022/08/29 08:53:42;;;;;;;17.40;6.47;;;;;;;29.71;38.25;99967.25;1825204;77;21122;-39
2022/08/29 08:56:32;;;;;;;15.45;5.10;;;;;;;29.76;37.76;99965.88;1807629;77;20968;-41
2022/08/29 08:59:19;;;;;;;14.60;5.47;;;;;;;29.85;38.22;99964.22;1814535;77;20974;-41
2022/08/29 09:02:04;;;;;;;14.30;5.37;;;;;;;29.90;36.91;99968.23;1810196;78;21008;-46
2022/08/29 09:05:26;;;;;;;20.62;6.50;;;;;;;29.98;36.45;99971.64;1806391;78;21558;-46
2022/08/29 09:08:16;;;;;;;19.82;5.40;;;;;;;30.02;37.10;99964.13;1804918;78;21337;-47
2022/08/29 09:11:00;;;;;;;18.50;5.87;;;;;;;30.08;36.36;99965.79;1807077;78;21052;-47
2022/08/29 09:13:57;;;;;;;15.00;5.12;;;;;;;30.15;35.35;99959.40;1813273;78;21007;-40
2022/08/29 09:16:40;;;;;;;19.77;5.25;;;;;;;30.24;34.29;99961.31;1805114;78;20995;-47
2022/08/29 09:19:10;;;;;;;21.70;5.47;;;;;;;30.34;34.59;99965.42;1788078;79;21494;-47
2022/08/29 09:21:54;;;;;;;20.45;5.15;;;;;;;30.42;34.38;99958.84;1811289;78;20952;-40
2022/08/29 09:24:29;;;;;;;13.90;5.08;;;;;;;30.48;34.06;99963.69;1814616;77;21328;-40
2022/08/29 09:26:56;;;;;;;15.20;5.22;;;;;;;30.56;33.28;99959.84;1803800;78;21115;-46
2022/08/29 09:29:28;;;;;;;20.60;5.25;;;;;;;30.62;34.02;99964.69;1810832;77;21037;-47
2022/08/29 09:32:11;;;;;;;19.80;5.75;;;;;;;30.62;32.10;99959.30;1811593;78;21083;-47
2022/08/29 09:34:43;;;;;;;11.60;4.60;;;;;;;30.65;32.89;99956.80;1805284;78;20978;-40
2022/08/29 09:37:24;;;;;;;15.88;5.37;;;;;;;30.71;32.83;99958.48;1796562;78;21000;-40
2022/08/29 09:40:11;;;;;;;25.17;5.85;;;;;;;30.78;31.65;99956.09;1808271;77;20981;-40
2022/08/29 09:42:45;;;;;;;18.95;5.45;;;;;;;30.73;31.89;99957.88;1800500;77;21009;-40
2022/08/29 09:45:24;;;;;;;13.53;4.55;;;;;;;30.67;32.52;99952.99;1807874;77;21011;-40
2022/08/29 09:48:15;;;;;;;14.45;5.22;;;;;;;30.67;31.94;99950.76;1810516;78;21099;-40
2022/08/29 09:50:43;;;;;;;14.53;5.00;;;;;;;30.63;31.40;99962.34;1822262;77;21503;-40
2022/08/29 09:53:10;;;;;;;26.10;6.37;;;;;;;30.55;32.58;99963.50;1792176;78;21170;-41
2022/08/29 09:55:43;;;;;;;13.72;5.08;;;;;;;30.57;32.28;99961.55;1800143;77;20973;-40
2022/08/29 09:58:24;;;;;;;14.25;5.08;;;;;;;30.59;32.20;99956.84;1816672;78;21000;-40
2022/08/29 10:01:05;;;;;;;15.40;4.92;;;;;;;30.58;32.47;99951.59;1803407;77;21049;-47
2022/08/29 10:03:38;;;;;;;17.07;5.42;;;;;;;30.63;32.33;99955.59;1803327;78;21008;-47
2022/08/29 10:06:17;;;;;;;16.97;5.10;;;;;;;30.72;31.95;99952.59;1718453;81;21321;-40
2022/08/29 10:08:57;;;;;;;22.65;5.87;;;;;;;30.80;31.65;99957.32;1751462;80;21550;-40
2022/08/29 10:11:32;;;;;;;30.82;5.80;;;;;;;30.86;31.19;99955.42;1754711;79;21043;-46
2022/08/29 10:14:13;;;;;;;25.08;5.62;;;;;;;30.86;31.33;99954.07;1758057;80;21118;-40
2022/08/29 10:19:52;;;;;;;11.22;4.67;;;;;;;31.00;31.74;99953.16;1766014;80;21534;-47
2022/08/29 10:22:39;;;;;;;15.50;5.37;;;;;;;31.20;30.22;99943.76;1771964;80;21544;-40
2022/08/29 10:25:27;;;;;;;12.20;5.30;;;;;;;31.36;30.72;99956.22;1759022;80;21032;-40
2022/08/29 10:28:19;;;;;;;22.67;5.90;;;;;;;31.59;30.55;99945.98;1764939;79;21178;-40
2022/08/29 10:31:12;;;;;;;10.90;4.60;;;;;;;31.92;29.83;99943.85;1763209;79;21118;-46
2022/08/29 10:33:56;;;;;;;21.45;5.12;;;;;;;32.30;29.42;99936.98;1766111;79;21028;-47
2022/08/29 10:36:32;;;;;;;22.85;5.12;;;;;;;32.63;29.07;99948.27;1742349;80;21063;-47
2022/08/29 10:39:16;;;;;;;17.45;5.67;;;;;;;32.90;28.62;99943.38;1738886;80;20991;-47
2022/08/29 10:42:00;;;;;;;19.95;6.00;;;;;;;33.22;28.31;99936.09;1729612;81;21041;-41
2022/08/29 10:44:47;;;;;;;14.75;5.80;;;;;;;33.76;27.74;99930.69;1734499;81;21578;-41
2022/08/29 10:47:33;;;;;;;21.40;5.97;;;;;;;34.28;26.64;99934.28;1717341;81;21122;-40
2022/08/29 10:50:16;;;;;;;21.65;4.97;;;;;;;34.61;26.65;99939.37;1734120;81;21090;-39
2022/08/29 10:53:14;;;;;;;16.42;5.87;;;;;;;34.91;25.97;99941.20;1730446;80;21028;-47
2022/08/29 10:55:52;;;;;;;23.05;5.25;;;;;;;35.26;24.60;99937.92;1749203;80;21034;-46
2022/08/29 10:58:56;;;;;;;21.07;5.72;;;;;;;35.53;24.43;99938.97;1733570;81;21069;-46
2022/08/29 11:01:39;;;;;;;16.07;5.08;;;;;;;35.90;25.02;99932.17;1739855;80;21598;-41
2022/08/29 11:04:22;;;;;;;17.90;5.80;;;;;;;36.42;24.29;99929.05;1750191;81;21007;-40
2022/08/29 11:07:18;;;;;;;24.20;5.72;;;;;;;36.79;23.39;99932.97;1733885;81;21077;-46
2022/08/29 11:10:24;;;;;;;20.20;5.10;;;;;;;36.92;23.18;99936.83;1733500;80;21531;-47
2022/08/29 11:13:15;;;;;;;25.10;5.70;;;;;;;36.83;22.44;99941.13;1747762;79;21014;-47
2022/08/29 11:15:46;;;;;;;16.67;4.83;;;;;;;36.28;22.97;99929.73;1803480;77;21047;-42
2022/08/29 11:18:23;;;;;;;13.05;4.85;;;;;;;35.66;23.14;99931.66;1669782;83;21044;-46
2022/08/29 11:21:00;;;;;;;18.23;5.28;;;;;;;35.23;23.93;99930.93;1677388;83;21494;-40
2022/08/29 11:23:43;;;;;;;24.72;5.70;;;;;;;34.95;23.87;99933.08;1669778;84;21136;-46
2022/08/29 11:26:33;;;;;;;18.82;5.53;;;;;;;34.68;23.91;99930.60;1674362;83;21028;-40
2022/08/29 11:29:17;;;;;;;23.45;5.85;;;;;;;34.38;24.25;99928.72;1675426;84;21072;-46
2022/08/29 11:32:04;;;;;;;17.80;5.33;;;;;;;34.12;25.30;99935.54;1666894;84;21116;-46
2022/08/29 11:34:56;;;;;;;16.93;5.80;;;;;;;33.78;25.67;99919.16;1678003;84;21142;-46
2022/08/29 11:37:37;;;;;;;19.82;6.40;;;;;;;33.42;26.06;99923.78;1669446;84;21109;-46
2022/08/29 11:40:27;;;;;;;22.62;4.75;;;;;;;33.19;26.43;99920.66;1664095;84;21507;-44
2022/08/29 11:42:54;;;;;;;18.80;6.05;;;;;;;33.12;26.79;99912.80;1666061;84;21060;-45
2022/08/29 11:45:25;;;;;;;16.48;5.05;;;;;;;33.06;26.99;99915.12;1671589;83;21030;-46
2022/08/29 11:48:11;;;;;;;17.27;5.83;;;;;;;32.92;27.50;99918.84;1663034;85;21128;-46
2022/08/29 11:50:37;;;;;;;25.70;7.05;;;;;;;32.70;27.70;99921.43;1644682;85;21129;-45
2022/08/29 11:53:32;;;;;;;22.55;7.28;;;;;;;32.48;27.96;99920.00;1680741;84;21065;-47
2022/08/29 11:56:18;;;;;;;16.00;6.05;;;;;;;32.37;27.81;99921.55;1749428;78;20964;-40
2022/08/29 11:58:47;;;;;;;17.65;5.37;;;;;;;32.33;28.02;99914.68;1803657;77;21019;-41
2022/08/29 12:01:39;;;;;;;21.68;5.55;;;;;;;32.34;27.64;99907.79;1799157;78;21008;-40
2022/08/29 12:04:07;;;;;;;22.02;5.17;;;;;;;32.40;27.99;99909.05;1813053;78;20989;-41
2022/08/29 12:06:56;;;;;;;27.65;5.37;;;;;;;32.39;28.38;99912.77;1814759;78;21044;-40
2022/08/29 12:09:48;;;;;;;24.07;5.60;;;;;;;32.34;28.10;99919.09;1801190;77;20978;-40
2022/08/29 12:12:38;;;;;;;21.55;5.90;;;;;;;32.26;28.05;99915.28;1795726;78;21880;-47
2022/08/29 12:15:35;;;;;;;17.60;5.92;;;;;;;32.26;28.04;99919.33;1810168;77;21025;-47
2022/08/29 12:18:30;;;;;;;18.70;4.95;;;;;;;32.29;27.71;99919.52;1812044;78;21578;-40
2022/08/29 12:20:59;;;;;;;15.25;4.42;;;;;;;32.30;27.80;99924.81;1804160;78;21040;-48
2022/08/29 12:23:34;;;;;;;26.70;5.30;;;;;;;32.30;28.11;99919.40;1806342;78;20973;-40
2022/08/29 12:26:04;;;;;;;16.82;4.42;;;;;;;32.33;27.00;99916.87;1815918;78;21020;-40
2022/08/29 12:28:56;;;;;;;17.40;4.62;;;;;;;32.29;27.56;99925.78;1804692;78;20993;-40
2022/08/29 12:31:27;;;;;;;;;;;;;;;32.26;27.79;99921.19;1810859;77;21257;-40
2022/08/29 12:34:02;;;;;;;22.62;4.90;;;;;;;32.24;26.90;99917.29;1802286;78;20523;-46
2022/08/29 12:37:00;;;;;;;15.75;4.92;;;;;;;32.22;27.17;99910.30;1803522;78;21519;-46
2022/08/29 12:40:20;;;;;;;26.40;5.95;;;;;;;32.21;27.22;99922.98;1806994;78;20968;-39
2022/08/29 12:43:11;;;;;;;14.63;4.12;;;;;;;32.15;26.47;99924.92;1797760;78;20991;-39
2022/08/29 12:45:41;;;;;;;21.42;5.65;;;;;;;32.17;26.36;99919.36;1809163;77;20933;-39
2022/08/29 12:48:19;;;;;;;17.17;4.47;;;;;;;32.20;26.54;99913.16;1802369;77;21028;-46
2022/08/29 12:50:47;;;;;;;17.87;4.80;;;;;;;32.20;26.39;99914.52;1806784;78;20996;-38
2022/08/29 12:53:24;;;;;;;12.23;4.33;;;;;;;32.13;27.01;99919.33;1805456;77;21089;-38
2022/08/29 12:55:56;;;;;;;22.17;5.55;;;;;;;32.06;27.45;99916.33;1810874;78;20959;-39
2022/08/29 12:58:42;;;;;;;27.70;5.65;;;;;;;32.05;27.61;99910.06;1795542;79;21105;-40
2022/08/29 13:01:31;;;;;;;15.32;5.35;;;;;;;32.09;27.80;99915.20;1795965;78;21624;-45
2022/08/29 13:04:13;;;;;;;15.58;5.62;;;;;;;32.16;27.76;99913.59;1807437;78;21568;-45
2022/08/29 13:06:54;;;;;;;13.65;5.47;;;;;;;32.20;27.26;99909.11;1804646;78;21534;-41
2022/08/29 13:09:31;;;;;;;22.45;5.45;;;;;;;32.28;27.76;99905.64;1812785;78;21097;-39
2022/08/29 13:12:32;;;;;;;16.37;4.80;;;;;;;32.34;27.64;99902.84;1795344;78;21087;-39
2022/08/29 13:15:07;;;;;;;18.95;5.30;;;;;;;32.37;27.67;99899.39;1781700;79;21543;-45
2022/08/29 13:17:39;;;;;;;14.87;4.67;;;;;;;32.43;27.53;99906.91;1782117;79;21051;-39
2022/08/29 13:20:41;;;;;;;17.15;4.85;;;;;;;32.39;27.66;99900.58;1786651;79;21433;-39
2022/08/29 13:23:22;;;;;;;13.55;5.05;;;;;;;32.36;27.78;99897.69;1782664;79;21098;-39
